sensor_id;sensor_type;location;lat;lon;timestamp;P1;durP1;ratioP1;P2;durP2;ratioP2
4202;SDS011;2115;51.038;7.006;2023-02-18T00:02:04;23.43;;;9.40;;
4202;SDS011;2115;51.038;7.006;2023-02-18T00:04:30;21.63;;;10.63;;
4202;SDS011;2115;51.038;7.006;2023-02-18T00:06:55;27.40;;;11.93;;
4202;SDS011;2115;51.038;7.006;2023-02-18T00:09:20;20.37;;;9.57;;
4202;SDS011;2115;51.038;7.006;2023-02-18T00:11:46;18.40;;;11.00;;
4202;SDS011;2115;51.038;7.006;2023-02-18T00:14:12;25.57;;;10.10;;
4202;SDS011;2115;51.038;7.006;2023-02-18T00:16:39;21.13;;;10.70;;
4202;SDS011;2115;51.038;7.006;2023-02-18T00:19:06;34.00;;;12.70;;
4202;SDS011;2115;51.038;7.006;2023-02-18T00:21:33;19.83;;;11.27;;
4202;SDS011;2115;51.038;7.006;2023-02-18T00:23:59;27.97;;;13.23;;
4202;SDS011;2115;51.038;7.006;2023-02-18T00:26:25;25.53;;;11.80;;
4202;SDS011;2115;51.038;7.006;2023-02-18T00:28:50;16.23;;;9.93;;
4202;SDS011;2115;51.038;7.006;2023-02-18T00:31:21;34.87;;;12.50;;
4202;SDS011;2115;51.038;7.006;2023-02-18T00:33:50;24.07;;;11.50;;
4202;SDS011;2115;51.038;7.006;2023-02-18T00:36:16;32.07;;;12.77;;
4202;SDS011;2115;51.038;7.006;2023-02-18T00:38:47;30.97;;;8.33;;
4202;SDS011;2115;51.038;7.006;2023-02-18T00:41:14;22.50;;;10.90;;
4202;SDS011;2115;51.038;7.006;2023-02-18T00:43:40;45.00;;;13.70;;
4202;SDS011;2115;51.038;7.006;2023-02-18T00:46:05;21.90;;;10.57;;
4202;SDS011;2115;51.038;7.006;2023-02-18T00:48:31;17.83;;;9.40;;
4202;SDS011;2115;51.038;7.006;2023-02-18T00:50:57;21.03;;;10.97;;
4202;SDS011;2115;51.038;7.006;2023-02-18T00:53:24;21.47;;;10.50;;
4202;SDS011;2115;51.038;7.006;2023-02-18T00:55:50;24.20;;;9.60;;
4202;SDS011;2115;51.038;7.006;2023-02-18T00:58:15;20.83;;;9.57;;
4202;SDS011;2115;51.038;7.006;2023-02-18T01:00:41;25.30;;;9.53;;
4202;SDS011;2115;51.038;7.006;2023-02-18T01:03:06;16.90;;;6.93;;
4202;SDS011;2115;51.038;7.006;2023-02-18T01:05:32;15.87;;;8.20;;
4202;SDS011;2115;51.038;7.006;2023-02-18T01:07:58;21.33;;;7.70;;
4202;SDS011;2115;51.038;7.006;2023-02-18T01:10:23;14.83;;;7.67;;
4202;SDS011;2115;51.038;7.006;2023-02-18T01:12:49;16.90;;;7.93;;
4202;SDS011;2115;51.038;7.006;2023-02-18T01:15:14;14.73;;;7.67;;
4202;SDS011;2115;51.038;7.006;2023-02-18T01:17:40;14.80;;;6.70;;
4202;SDS011;2115;51.038;7.006;2023-02-18T01:20:06;14.93;;;7.97;;
4202;SDS011;2115;51.038;7.006;2023-02-18T01:22:32;12.63;;;6.47;;
4202;SDS011;2115;51.038;7.006;2023-02-18T01:24:58;17.37;;;7.03;;
4202;SDS011;2115;51.038;7.006;2023-02-18T01:27:23;13.60;;;5.90;;
4202;SDS011;2115;51.038;7.006;2023-02-18T01:29:48;14.83;;;6.73;;
4202;SDS011;2115;51.038;7.006;2023-02-18T01:32:14;12.93;;;6.43;;
4202;SDS011;2115;51.038;7.006;2023-02-18T01:34:39;15.70;;;7.10;;
4202;SDS011;2115;51.038;7.006;2023-02-18T01:37:04;13.83;;;6.97;;
4202;SDS011;2115;51.038;7.006;2023-02-18T01:39:30;18.30;;;6.87;;
4202;SDS011;2115;51.038;7.006;2023-02-18T01:41:55;16.50;;;5.00;;
4202;SDS011;2115;51.038;7.006;2023-02-18T01:44:22;17.00;;;5.63;;
4202;SDS011;2115;51.038;7.006;2023-02-18T01:46:48;8.13;;;4.67;;
4202;SDS011;2115;51.038;7.006;2023-02-18T01:49:33;12.10;;;5.00;;
4202;SDS011;2115;51.038;7.006;2023-02-18T01:52:11;9.47;;;4.23;;
4202;SDS011;2115;51.038;7.006;2023-02-18T01:54:58;15.80;;;5.93;;
4202;SDS011;2115;51.038;7.006;2023-02-18T01:57:28;11.63;;;4.63;;
4202;SDS011;2115;51.038;7.006;2023-02-18T01:59:56;8.13;;;3.60;;
4202;SDS011;2115;51.038;7.006;2023-02-18T02:02:25;11.73;;;4.77;;
4202;SDS011;2115;51.038;7.006;2023-02-18T02:04:51;6.20;;;3.70;;
4202;SDS011;2115;51.038;7.006;2023-02-18T02:07:17;9.67;;;4.43;;
4202;SDS011;2115;51.038;7.006;2023-02-18T02:09:44;10.03;;;4.80;;
4202;SDS011;2115;51.038;7.006;2023-02-18T02:12:20;12.40;;;4.50;;
4202;SDS011;2115;51.038;7.006;2023-02-18T02:35:54;20.60;;;6.00;;
4202;SDS011;2115;51.038;7.006;2023-02-18T02:38:47;10.90;;;5.30;;
4202;SDS011;2115;51.038;7.006;2023-02-18T02:44:23;13.13;;;5.50;;
4202;SDS011;2115;51.038;7.006;2023-02-18T02:46:51;11.73;;;4.93;;
4202;SDS011;2115;51.038;7.006;2023-02-18T02:51:55;15.23;;;6.60;;
4202;SDS011;2115;51.038;7.006;2023-02-18T02:54:44;11.00;;;5.47;;
4202;SDS011;2115;51.038;7.006;2023-02-18T02:59:39;25.97;;;8.17;;
4202;SDS011;2115;51.038;7.006;2023-02-18T03:04:53;17.17;;;7.27;;
4202;SDS011;2115;51.038;7.006;2023-02-18T03:12:33;15.77;;;8.13;;
4202;SDS011;2115;51.038;7.006;2023-02-18T03:17:57;18.60;;;8.00;;
4202;SDS011;2115;51.038;7.006;2023-02-18T03:20:30;17.17;;;6.10;;
4202;SDS011;2115;51.038;7.006;2023-02-18T03:22:59;16.73;;;8.30;;
4202;SDS011;2115;51.038;7.006;2023-02-18T03:25:28;29.10;;;10.33;;
4202;SDS011;2115;51.038;7.006;2023-02-18T03:27:55;18.97;;;8.53;;
4202;SDS011;2115;51.038;7.006;2023-02-18T03:30:28;24.60;;;9.60;;
4202;SDS011;2115;51.038;7.006;2023-02-18T03:32:59;20.77;;;7.77;;
4202;SDS011;2115;51.038;7.006;2023-02-18T03:35:27;21.10;;;9.40;;
4202;SDS011;2115;51.038;7.006;2023-02-18T03:37:54;18.63;;;8.13;;
4202;SDS011;2115;51.038;7.006;2023-02-18T03:40:25;16.60;;;7.63;;
4202;SDS011;2115;51.038;7.006;2023-02-18T03:42:52;14.07;;;8.00;;
4202;SDS011;2115;51.038;7.006;2023-02-18T03:45:17;17.70;;;8.20;;
4202;SDS011;2115;51.038;7.006;2023-02-18T03:47:43;15.90;;;6.77;;
4202;SDS011;2115;51.038;7.006;2023-02-18T03:50:08;24.20;;;7.90;;
4202;SDS011;2115;51.038;7.006;2023-02-18T03:52:34;12.77;;;7.10;;
4202;SDS011;2115;51.038;7.006;2023-02-18T03:55:01;13.37;;;6.43;;
4202;SDS011;2115;51.038;7.006;2023-02-18T03:57:29;16.90;;;6.83;;
4202;SDS011;2115;51.038;7.006;2023-02-18T03:59:55;40.23;;;9.70;;
4202;SDS011;2115;51.038;7.006;2023-02-18T04:02:20;15.47;;;5.60;;
4202;SDS011;2115;51.038;7.006;2023-02-18T04:04:46;19.50;;;6.67;;
4202;SDS011;2115;51.038;7.006;2023-02-18T04:07:12;33.10;;;7.00;;
4202;SDS011;2115;51.038;7.006;2023-02-18T04:09:37;18.93;;;6.23;;
4202;SDS011;2115;51.038;7.006;2023-02-18T04:12:03;12.00;;;4.00;;
4202;SDS011;2115;51.038;7.006;2023-02-18T04:14:28;14.37;;;5.60;;
4202;SDS011;2115;51.038;7.006;2023-02-18T04:16:54;13.00;;;5.33;;
4202;SDS011;2115;51.038;7.006;2023-02-18T04:19:19;15.83;;;4.73;;
4202;SDS011;2115;51.038;7.006;2023-02-18T04:21:44;10.27;;;4.93;;
4202;SDS011;2115;51.038;7.006;2023-02-18T04:24:10;16.47;;;6.20;;
4202;SDS011;2115;51.038;7.006;2023-02-18T04:26:35;12.30;;;5.50;;
4202;SDS011;2115;51.038;7.006;2023-02-18T04:29:01;20.70;;;8.57;;
4202;SDS011;2115;51.038;7.006;2023-02-18T04:31:26;23.37;;;7.97;;
4202;SDS011;2115;51.038;7.006;2023-02-18T04:33:51;15.27;;;7.50;;
4202;SDS011;2115;51.038;7.006;2023-02-18T04:36:17;15.73;;;6.97;;
4202;SDS011;2115;51.038;7.006;2023-02-18T04:38:42;15.07;;;7.23;;
4202;SDS011;2115;51.038;7.006;2023-02-18T04:41:08;9.90;;;5.40;;
4202;SDS011;2115;51.038;7.006;2023-02-18T04:43:33;11.07;;;4.70;;
4202;SDS011;2115;51.038;7.006;2023-02-18T04:45:58;20.27;;;5.20;;
4202;SDS011;2115;51.038;7.006;2023-02-18T04:48:24;11.53;;;4.93;;
4202;SDS011;2115;51.038;7.006;2023-02-18T04:50:49;10.27;;;4.07;;
4202;SDS011;2115;51.038;7.006;2023-02-18T04:53:15;10.90;;;4.00;;
4202;SDS011;2115;51.038;7.006;2023-02-18T04:55:40;5.77;;;2.60;;
4202;SDS011;2115;51.038;7.006;2023-02-18T04:58:05;9.93;;;3.70;;
4202;SDS011;2115;51.038;7.006;2023-02-18T05:00:34;6.00;;;2.90;;
4202;SDS011;2115;51.038;7.006;2023-02-18T05:02:59;6.00;;;3.13;;
4202;SDS011;2115;51.038;7.006;2023-02-18T05:05:25;7.43;;;3.43;;
4202;SDS011;2115;51.038;7.006;2023-02-18T05:07:51;9.23;;;3.60;;
4202;SDS011;2115;51.038;7.006;2023-02-18T05:10:17;8.47;;;3.77;;
4202;SDS011;2115;51.038;7.006;2023-02-18T05:12:42;9.33;;;3.80;;
4202;SDS011;2115;51.038;7.006;2023-02-18T05:15:08;9.93;;;3.63;;
4202;SDS011;2115;51.038;7.006;2023-02-18T05:17:34;7.13;;;3.30;;
4202;SDS011;2115;51.038;7.006;2023-02-18T05:19:59;4.17;;;2.23;;
4202;SDS011;2115;51.038;7.006;2023-02-18T05:22:25;8.87;;;3.23;;
4202;SDS011;2115;51.038;7.006;2023-02-18T05:24:50;11.00;;;3.47;;
4202;SDS011;2115;51.038;7.006;2023-02-18T05:27:16;6.80;;;2.10;;
4202;SDS011;2115;51.038;7.006;2023-02-18T05:29:41;6.83;;;3.60;;
4202;SDS011;2115;51.038;7.006;2023-02-18T05:32:07;7.23;;;3.50;;
4202;SDS011;2115;51.038;7.006;2023-02-18T05:34:32;10.30;;;3.90;;
4202;SDS011;2115;51.038;7.006;2023-02-18T05:36:58;16.23;;;4.53;;
4202;SDS011;2115;51.038;7.006;2023-02-18T05:39:23;9.67;;;4.50;;
4202;SDS011;2115;51.038;7.006;2023-02-18T05:41:48;7.27;;;3.43;;
4202;SDS011;2115;51.038;7.006;2023-02-18T05:44:14;8.27;;;3.10;;
4202;SDS011;2115;51.038;7.006;2023-02-18T05:46:54;8.33;;;3.80;;
4202;SDS011;2115;51.038;7.006;2023-02-18T05:49:24;7.93;;;3.77;;
4202;SDS011;2115;51.038;7.006;2023-02-18T05:51:50;12.57;;;5.10;;
4202;SDS011;2115;51.038;7.006;2023-02-18T05:54:15;9.63;;;4.33;;
4202;SDS011;2115;51.038;7.006;2023-02-18T05:56:40;6.23;;;3.17;;
4202;SDS011;2115;51.038;7.006;2023-02-18T05:59:06;15.80;;;5.23;;
4202;SDS011;2115;51.038;7.006;2023-02-18T06:01:31;14.67;;;4.87;;
4202;SDS011;2115;51.038;7.006;2023-02-18T06:03:57;7.03;;;4.23;;
4202;SDS011;2115;51.038;7.006;2023-02-18T06:06:22;6.43;;;3.23;;
4202;SDS011;2115;51.038;7.006;2023-02-18T06:08:48;18.13;;;5.80;;
4202;SDS011;2115;51.038;7.006;2023-02-18T06:11:13;12.20;;;5.60;;
4202;SDS011;2115;51.038;7.006;2023-02-18T06:13:39;11.37;;;4.67;;
4202;SDS011;2115;51.038;7.006;2023-02-18T06:16:04;6.73;;;3.00;;
4202;SDS011;2115;51.038;7.006;2023-02-18T06:18:30;13.77;;;4.63;;
4202;SDS011;2115;51.038;7.006;2023-02-18T06:20:55;9.20;;;4.00;;
4202;SDS011;2115;51.038;7.006;2023-02-18T06:23:20;11.50;;;4.63;;
4202;SDS011;2115;51.038;7.006;2023-02-18T06:25:49;7.10;;;2.20;;
4202;SDS011;2115;51.038;7.006;2023-02-18T06:28:15;8.20;;;3.77;;
4202;SDS011;2115;51.038;7.006;2023-02-18T06:30:40;6.63;;;2.83;;
4202;SDS011;2115;51.038;7.006;2023-02-18T06:33:06;6.17;;;3.30;;
4202;SDS011;2115;51.038;7.006;2023-02-18T06:35:32;9.40;;;4.03;;
4202;SDS011;2115;51.038;7.006;2023-02-18T06:37:57;5.17;;;3.30;;
4202;SDS011;2115;51.038;7.006;2023-02-18T06:40:23;7.00;;;3.23;;
4202;SDS011;2115;51.038;7.006;2023-02-18T06:42:48;6.80;;;3.80;;
4202;SDS011;2115;51.038;7.006;2023-02-18T06:45:14;9.67;;;4.07;;
4202;SDS011;2115;51.038;7.006;2023-02-18T06:47:39;10.43;;;4.47;;
4202;SDS011;2115;51.038;7.006;2023-02-18T06:50:05;11.83;;;3.93;;
4202;SDS011;2115;51.038;7.006;2023-02-18T06:52:31;5.73;;;2.70;;
4202;SDS011;2115;51.038;7.006;2023-02-18T06:54:58;5.90;;;2.97;;
4202;SDS011;2115;51.038;7.006;2023-02-18T06:57:24;5.30;;;3.10;;
4202;SDS011;2115;51.038;7.006;2023-02-18T06:59:49;5.53;;;2.40;;
4202;SDS011;2115;51.038;7.006;2023-02-18T07:02:15;4.47;;;2.73;;
4202;SDS011;2115;51.038;7.006;2023-02-18T07:04:40;7.00;;;3.50;;
4202;SDS011;2115;51.038;7.006;2023-02-18T07:07:05;4.90;;;2.80;;
4202;SDS011;2115;51.038;7.006;2023-02-18T07:09:31;6.40;;;3.40;;
4202;SDS011;2115;51.038;7.006;2023-02-18T07:11:56;6.00;;;3.30;;
4202;SDS011;2115;51.038;7.006;2023-02-18T07:14:22;6.35;;;2.75;;
4202;SDS011;2115;51.038;7.006;2023-02-18T07:16:48;6.00;;;2.50;;
4202;SDS011;2115;51.038;7.006;2023-02-18T07:19:14;9.20;;;4.40;;
4202;SDS011;2115;51.038;7.006;2023-02-18T07:21:41;8.20;;;3.60;;
4202;SDS011;2115;51.038;7.006;2023-02-18T07:24:06;12.10;;;4.23;;
4202;SDS011;2115;51.038;7.006;2023-02-18T07:26:32;3.00;;;1.80;;
4202;SDS011;2115;51.038;7.006;2023-02-18T07:28:57;2.50;;;1.60;;
4202;SDS011;2115;51.038;7.006;2023-02-18T07:31:23;5.95;;;1.65;;
4202;SDS011;2115;51.038;7.006;2023-02-18T07:33:48;2.07;;;0.80;;
4202;SDS011;2115;51.038;7.006;2023-02-18T07:36:14;6.30;;;1.70;;
4202;SDS011;2115;51.038;7.006;2023-02-18T07:38:39;13.00;;;1.83;;
4202;SDS011;2115;51.038;7.006;2023-02-18T07:41:04;15.13;;;2.57;;
4202;SDS011;2115;51.038;7.006;2023-02-18T07:43:30;4.33;;;1.20;;
4202;SDS011;2115;51.038;7.006;2023-02-18T07:45:55;9.40;;;1.97;;
4202;SDS011;2115;51.038;7.006;2023-02-18T07:48:21;7.30;;;1.50;;
4202;SDS011;2115;51.038;7.006;2023-02-18T07:50:46;7.43;;;1.63;;
4202;SDS011;2115;51.038;7.006;2023-02-18T07:53:12;9.40;;;1.53;;
4202;SDS011;2115;51.038;7.006;2023-02-18T07:55:39;5.07;;;1.57;;
4202;SDS011;2115;51.038;7.006;2023-02-18T07:58:14;4.53;;;1.30;;
4202;SDS011;2115;51.038;7.006;2023-02-18T08:00:49;2.60;;;1.13;;
4202;SDS011;2115;51.038;7.006;2023-02-18T08:03:16;3.10;;;1.00;;
4202;SDS011;2115;51.038;7.006;2023-02-18T08:05:42;2.20;;;0.80;;
4202;SDS011;2115;51.038;7.006;2023-02-18T08:08:10;7.93;;;1.70;;
4202;SDS011;2115;51.038;7.006;2023-02-18T08:10:40;6.80;;;1.10;;
4202;SDS011;2115;51.038;7.006;2023-02-18T08:13:06;7.23;;;1.43;;
4202;SDS011;2115;51.038;7.006;2023-02-18T08:15:32;7.03;;;1.33;;
4202;SDS011;2115;51.038;7.006;2023-02-18T08:17:57;8.13;;;1.97;;
4202;SDS011;2115;51.038;7.006;2023-02-18T08:20:26;2.20;;;0.90;;
4202;SDS011;2115;51.038;7.006;2023-02-18T08:22:52;7.20;;;1.97;;
4202;SDS011;2115;51.038;7.006;2023-02-18T08:25:17;6.47;;;2.10;;
4202;SDS011;2115;51.038;7.006;2023-02-18T08:27:42;8.20;;;1.37;;
4202;SDS011;2115;51.038;7.006;2023-02-18T08:30:08;14.13;;;2.83;;
4202;SDS011;2115;51.038;7.006;2023-02-18T08:32:34;6.50;;;2.30;;
4202;SDS011;2115;51.038;7.006;2023-02-18T08:35:00;13.13;;;2.90;;
4202;SDS011;2115;51.038;7.006;2023-02-18T08:37:25;7.50;;;1.50;;
4202;SDS011;2115;51.038;7.006;2023-02-18T08:39:51;11.43;;;2.20;;
4202;SDS011;2115;51.038;7.006;2023-02-18T08:42:16;21.43;;;3.87;;
4202;SDS011;2115;51.038;7.006;2023-02-18T08:44:42;7.67;;;1.47;;
4202;SDS011;2115;51.038;7.006;2023-02-18T08:47:07;3.97;;;1.53;;
4202;SDS011;2115;51.038;7.006;2023-02-18T08:49:32;12.07;;;1.80;;
4202;SDS011;2115;51.038;7.006;2023-02-18T08:52:00;8.43;;;2.40;;
4202;SDS011;2115;51.038;7.006;2023-02-18T08:54:25;16.70;;;3.03;;
4202;SDS011;2115;51.038;7.006;2023-02-18T08:56:53;8.13;;;2.30;;
4202;SDS011;2115;51.038;7.006;2023-02-18T08:59:24;7.90;;;2.40;;
4202;SDS011;2115;51.038;7.006;2023-02-18T09:01:50;9.93;;;2.20;;
4202;SDS011;2115;51.038;7.006;2023-02-18T09:04:15;9.57;;;2.33;;
4202;SDS011;2115;51.038;7.006;2023-02-18T09:06:41;10.70;;;3.20;;
4202;SDS011;2115;51.038;7.006;2023-02-18T09:09:06;17.00;;;2.97;;
4202;SDS011;2115;51.038;7.006;2023-02-18T09:11:32;12.30;;;2.65;;
4202;SDS011;2115;51.038;7.006;2023-02-18T09:13:58;8.80;;;2.17;;
4202;SDS011;2115;51.038;7.006;2023-02-18T09:16:23;13.70;;;3.40;;
4202;SDS011;2115;51.038;7.006;2023-02-18T09:18:49;16.00;;;3.17;;
4202;SDS011;2115;51.038;7.006;2023-02-18T09:21:14;8.23;;;2.90;;
4202;SDS011;2115;51.038;7.006;2023-02-18T09:23:41;4.27;;;1.40;;
4202;SDS011;2115;51.038;7.006;2023-02-18T09:26:07;16.43;;;3.20;;
4202;SDS011;2115;51.038;7.006;2023-02-18T09:28:35;9.33;;;2.27;;
4202;SDS011;2115;51.038;7.006;2023-02-18T09:31:08;15.67;;;3.07;;
4202;SDS011;2115;51.038;7.006;2023-02-18T09:33:36;17.07;;;2.30;;
4202;SDS011;2115;51.038;7.006;2023-02-18T09:36:03;12.77;;;2.57;;
4202;SDS011;2115;51.038;7.006;2023-02-18T09:38:28;10.40;;;2.23;;
4202;SDS011;2115;51.038;7.006;2023-02-18T09:40:54;11.97;;;2.20;;
4202;SDS011;2115;51.038;7.006;2023-02-18T09:43:23;7.40;;;2.13;;
4202;SDS011;2115;51.038;7.006;2023-02-18T09:45:50;12.63;;;2.07;;
4202;SDS011;2115;51.038;7.006;2023-02-18T09:48:17;8.67;;;2.10;;
4202;SDS011;2115;51.038;7.006;2023-02-18T09:50:42;4.93;;;1.53;;
4202;SDS011;2115;51.038;7.006;2023-02-18T09:53:12;13.60;;;2.97;;
4202;SDS011;2115;51.038;7.006;2023-02-18T09:55:38;7.93;;;2.00;;
4202;SDS011;2115;51.038;7.006;2023-02-18T09:58:15;7.77;;;1.70;;
4202;SDS011;2115;51.038;7.006;2023-02-18T10:00:48;13.00;;;3.27;;
4202;SDS011;2115;51.038;7.006;2023-02-18T10:03:28;22.00;;;3.20;;
4202;SDS011;2115;51.038;7.006;2023-02-18T10:06:04;8.77;;;2.13;;
4202;SDS011;2115;51.038;7.006;2023-02-18T10:08:36;13.10;;;2.63;;
4202;SDS011;2115;51.038;7.006;2023-02-18T10:11:03;9.23;;;2.30;;
4202;SDS011;2115;51.038;7.006;2023-02-18T10:13:29;16.03;;;3.20;;
4202;SDS011;2115;51.038;7.006;2023-02-18T10:15:57;10.40;;;2.57;;
4202;SDS011;2115;51.038;7.006;2023-02-18T10:18:30;16.47;;;3.10;;
4202;SDS011;2115;51.038;7.006;2023-02-18T10:21:19;17.50;;;3.10;;
4202;SDS011;2115;51.038;7.006;2023-02-18T10:26:26;12.23;;;2.20;;
4202;SDS011;2115;51.038;7.006;2023-02-18T10:28:54;15.33;;;3.50;;
4202;SDS011;2115;51.038;7.006;2023-02-18T10:31:35;11.87;;;2.53;;
4202;SDS011;2115;51.038;7.006;2023-02-18T10:37:16;13.25;;;1.85;;
4202;SDS011;2115;51.038;7.006;2023-02-18T10:40:22;4.00;;;1.50;;
4202;SDS011;2115;51.038;7.006;2023-02-18T10:42:56;11.67;;;2.53;;
4202;SDS011;2115;51.038;7.006;2023-02-18T10:48:10;7.60;;;2.00;;
4202;SDS011;2115;51.038;7.006;2023-02-18T10:50:43;9.00;;;2.43;;
4202;SDS011;2115;51.038;7.006;2023-02-18T10:53:10;9.03;;;1.63;;
4202;SDS011;2115;51.038;7.006;2023-02-18T10:55:38;25.47;;;2.30;;
4202;SDS011;2115;51.038;7.006;2023-02-18T11:00:55;5.60;;;1.90;;
4202;SDS011;2115;51.038;7.006;2023-02-18T11:03:22;9.23;;;2.70;;
4202;SDS011;2115;51.038;7.006;2023-02-18T11:05:53;3.80;;;1.80;;
4202;SDS011;2115;51.038;7.006;2023-02-18T11:08:21;18.87;;;3.80;;
4202;SDS011;2115;51.038;7.006;2023-02-18T11:10:49;4.63;;;1.63;;
4202;SDS011;2115;51.038;7.006;2023-02-18T11:13:16;6.90;;;2.10;;
4202;SDS011;2115;51.038;7.006;2023-02-18T11:16:05;11.30;;;2.80;;
4202;SDS011;2115;51.038;7.006;2023-02-18T11:18:37;10.43;;;3.00;;
4202;SDS011;2115;51.038;7.006;2023-02-18T11:23:49;14.53;;;3.67;;
4202;SDS011;2115;51.038;7.006;2023-02-18T11:26:16;21.43;;;3.40;;
4202;SDS011;2115;51.038;7.006;2023-02-18T11:28:47;7.07;;;1.67;;
4202;SDS011;2115;51.038;7.006;2023-02-18T11:31:24;11.17;;;2.37;;
4202;SDS011;2115;51.038;7.006;2023-02-18T11:33:54;9.60;;;2.50;;
4202;SDS011;2115;51.038;7.006;2023-02-18T11:36:22;8.00;;;2.37;;
4202;SDS011;2115;51.038;7.006;2023-02-18T11:38:54;6.97;;;1.50;;
4202;SDS011;2115;51.038;7.006;2023-02-18T11:41:27;5.20;;;1.97;;
4202;SDS011;2115;51.038;7.006;2023-02-18T11:43:54;4.67;;;2.00;;
4202;SDS011;2115;51.038;7.006;2023-02-18T11:46:21;4.17;;;1.60;;
4202;SDS011;2115;51.038;7.006;2023-02-18T11:48:48;25.00;;;4.03;;
4202;SDS011;2115;51.038;7.006;2023-02-18T11:51:16;4.77;;;2.00;;
4202;SDS011;2115;51.038;7.006;2023-02-18T11:53:59;4.27;;;1.40;;
4202;SDS011;2115;51.038;7.006;2023-02-18T11:56:28;12.90;;;4.30;;
4202;SDS011;2115;51.038;7.006;2023-02-18T11:58:59;7.80;;;2.67;;
4202;SDS011;2115;51.038;7.006;2023-02-18T12:03:57;14.23;;;3.50;;
4202;SDS011;2115;51.038;7.006;2023-02-18T12:06:27;10.00;;;2.67;;
4202;SDS011;2115;51.038;7.006;2023-02-18T12:09:05;7.30;;;4.67;;
4202;SDS011;2115;51.038;7.006;2023-02-18T12:11:43;8.80;;;4.43;;
4202;SDS011;2115;51.038;7.006;2023-02-18T12:14:22;3.73;;;2.50;;
4202;SDS011;2115;51.038;7.006;2023-02-18T12:19:31;11.00;;;5.00;;
4202;SDS011;2115;51.038;7.006;2023-02-18T12:24:47;9.50;;;4.33;;
4202;SDS011;2115;51.038;7.006;2023-02-18T12:27:48;11.20;;;4.63;;
4202;SDS011;2115;51.038;7.006;2023-02-18T12:30:29;11.20;;;4.60;;
4202;SDS011;2115;51.038;7.006;2023-02-18T12:35:51;13.07;;;4.80;;
4202;SDS011;2115;51.038;7.006;2023-02-18T12:46:21;10.23;;;5.40;;
4202;SDS011;2115;51.038;7.006;2023-02-18T12:51:56;12.20;;;5.33;;
4202;SDS011;2115;51.038;7.006;2023-02-18T12:57:22;9.23;;;4.80;;
4202;SDS011;2115;51.038;7.006;2023-02-18T13:00:21;10.13;;;4.30;;
4202;SDS011;2115;51.038;7.006;2023-02-18T13:11:35;17.60;;;5.53;;
4202;SDS011;2115;51.038;7.006;2023-02-18T13:14:12;10.83;;;4.90;;
4202;SDS011;2115;51.038;7.006;2023-02-18T13:16:40;21.13;;;7.13;;
4202;SDS011;2115;51.038;7.006;2023-02-18T13:19:28;12.03;;;5.90;;
4202;SDS011;2115;51.038;7.006;2023-02-18T13:22:00;12.00;;;5.60;;
4202;SDS011;2115;51.038;7.006;2023-02-18T13:24:38;12.07;;;5.03;;
4202;SDS011;2115;51.038;7.006;2023-02-18T13:35:35;10.33;;;6.27;;
4202;SDS011;2115;51.038;7.006;2023-02-18T13:41:16;19.33;;;7.00;;
4202;SDS011;2115;51.038;7.006;2023-02-18T13:43:42;20.37;;;7.10;;
4202;SDS011;2115;51.038;7.006;2023-02-18T13:48:51;11.27;;;5.53;;
4202;SDS011;2115;51.038;7.006;2023-02-18T13:51:29;10.30;;;5.70;;
4202;SDS011;2115;51.038;7.006;2023-02-18T13:54:17;11.77;;;6.97;;
4202;SDS011;2115;51.038;7.006;2023-02-18T14:09:57;8.53;;;4.10;;
4202;SDS011;2115;51.038;7.006;2023-02-18T14:15:51;9.60;;;4.47;;
4202;SDS011;2115;51.038;7.006;2023-02-18T14:23:02;11.20;;;6.00;;
4202;SDS011;2115;51.038;7.006;2023-02-18T14:26:27;17.73;;;6.93;;
4202;SDS011;2115;51.038;7.006;2023-02-18T14:31:15;9.50;;;4.90;;
4202;SDS011;2115;51.038;7.006;2023-02-18T14:36:51;11.47;;;6.37;;
4202;SDS011;2115;51.038;7.006;2023-02-18T14:42:33;14.70;;;6.60;;
4202;SDS011;2115;51.038;7.006;2023-02-18T14:45:10;11.57;;;5.70;;
4202;SDS011;2115;51.038;7.006;2023-02-18T14:50:20;16.47;;;5.70;;
4202;SDS011;2115;51.038;7.006;2023-02-18T14:52:47;11.93;;;7.23;;
4202;SDS011;2115;51.038;7.006;2023-02-18T14:55:22;11.67;;;6.60;;
4202;SDS011;2115;51.038;7.006;2023-02-18T14:58:02;10.63;;;7.10;;
4202;SDS011;2115;51.038;7.006;2023-02-18T15:00:32;15.27;;;6.60;;
4202;SDS011;2115;51.038;7.006;2023-02-18T15:03:00;21.23;;;7.27;;
4202;SDS011;2115;51.038;7.006;2023-02-18T15:05:27;16.80;;;6.47;;
4202;SDS011;2115;51.038;7.006;2023-02-18T15:07:55;10.50;;;6.63;;
4202;SDS011;2115;51.038;7.006;2023-02-18T15:11:06;17.63;;;5.70;;
4202;SDS011;2115;51.038;7.006;2023-02-18T15:13:29;21.67;;;7.73;;
4202;SDS011;2115;51.038;7.006;2023-02-18T15:15:56;7.50;;;5.30;;
4202;SDS011;2115;51.038;7.006;2023-02-18T15:18:26;18.60;;;6.00;;
4202;SDS011;2115;51.038;7.006;2023-02-18T15:20:54;13.30;;;5.87;;
4202;SDS011;2115;51.038;7.006;2023-02-18T15:23:19;20.43;;;7.33;;
4202;SDS011;2115;51.038;7.006;2023-02-18T15:25:47;7.50;;;5.00;;
4202;SDS011;2115;51.038;7.006;2023-02-18T15:28:22;14.40;;;5.60;;
4202;SDS011;2115;51.038;7.006;2023-02-18T15:30:50;7.87;;;4.83;;
4202;SDS011;2115;51.038;7.006;2023-02-18T15:33:17;5.83;;;3.63;;
4202;SDS011;2115;51.038;7.006;2023-02-18T15:35:43;9.40;;;4.70;;
4202;SDS011;2115;51.038;7.006;2023-02-18T15:38:13;8.93;;;4.60;;
4202;SDS011;2115;51.038;7.006;2023-02-18T15:40:40;7.03;;;4.33;;
4202;SDS011;2115;51.038;7.006;2023-02-18T15:43:05;10.80;;;4.67;;
4202;SDS011;2115;51.038;7.006;2023-02-18T15:45:38;7.53;;;4.90;;
4202;SDS011;2115;51.038;7.006;2023-02-18T15:48:05;8.50;;;4.53;;
4202;SDS011;2115;51.038;7.006;2023-02-18T15:50:35;11.93;;;5.07;;
4202;SDS011;2115;51.038;7.006;2023-02-18T15:53:17;11.87;;;5.63;;
4202;SDS011;2115;51.038;7.006;2023-02-18T15:55:45;8.83;;;4.63;;
4202;SDS011;2115;51.038;7.006;2023-02-18T15:58:22;12.43;;;5.47;;
4202;SDS011;2115;51.038;7.006;2023-02-18T16:00:52;16.27;;;5.73;;
4202;SDS011;2115;51.038;7.006;2023-02-18T16:05:46;5.67;;;4.30;;
4202;SDS011;2115;51.038;7.006;2023-02-18T16:08:13;8.90;;;4.70;;
4202;SDS011;2115;51.038;7.006;2023-02-18T16:10:58;10.73;;;4.63;;
4202;SDS011;2115;51.038;7.006;2023-02-18T16:15:52;6.37;;;4.10;;
4202;SDS011;2115;51.038;7.006;2023-02-18T16:23:42;11.03;;;5.73;;
4202;SDS011;2115;51.038;7.006;2023-02-18T16:26:10;8.50;;;3.67;;
4202;SDS011;2115;51.038;7.006;2023-02-18T16:28:44;7.07;;;3.57;;
4202;SDS011;2115;51.038;7.006;2023-02-18T16:31:09;11.73;;;4.83;;
4202;SDS011;2115;51.038;7.006;2023-02-18T16:33:36;13.70;;;4.43;;
4202;SDS011;2115;51.038;7.006;2023-02-18T16:36:01;14.10;;;4.43;;
4202;SDS011;2115;51.038;7.006;2023-02-18T16:38:27;6.67;;;3.60;;
4202;SDS011;2115;51.038;7.006;2023-02-18T16:40:53;8.63;;;3.20;;
4202;SDS011;2115;51.038;7.006;2023-02-18T16:43:19;6.30;;;3.37;;
4202;SDS011;2115;51.038;7.006;2023-02-18T16:45:50;6.83;;;2.50;;
4202;SDS011;2115;51.038;7.006;2023-02-18T16:48:29;8.67;;;4.40;;
4202;SDS011;2115;51.038;7.006;2023-02-18T16:50:55;7.10;;;4.40;;
4202;SDS011;2115;51.038;7.006;2023-02-18T16:53:21;7.50;;;4.80;;
4202;SDS011;2115;51.038;7.006;2023-02-18T16:55:48;11.20;;;5.53;;
4202;SDS011;2115;51.038;7.006;2023-02-18T16:58:14;8.87;;;5.40;;
4202;SDS011;2115;51.038;7.006;2023-02-18T17:00:40;20.53;;;5.60;;
4202;SDS011;2115;51.038;7.006;2023-02-18T17:03:08;9.00;;;4.63;;
4202;SDS011;2115;51.038;7.006;2023-02-18T17:05:34;11.10;;;4.63;;
4202;SDS011;2115;51.038;7.006;2023-02-18T17:08:16;10.30;;;4.10;;
4202;SDS011;2115;51.038;7.006;2023-02-18T17:10:45;10.13;;;4.77;;
4202;SDS011;2115;51.038;7.006;2023-02-18T17:13:15;10.77;;;4.67;;
4202;SDS011;2115;51.038;7.006;2023-02-18T17:15:42;7.40;;;3.60;;
4202;SDS011;2115;51.038;7.006;2023-02-18T17:18:08;7.30;;;4.40;;
4202;SDS011;2115;51.038;7.006;2023-02-18T17:20:34;6.50;;;3.70;;
4202;SDS011;2115;51.038;7.006;2023-02-18T17:22:59;6.23;;;3.77;;
4202;SDS011;2115;51.038;7.006;2023-02-18T17:27:54;8.47;;;3.87;;
4202;SDS011;2115;51.038;7.006;2023-02-18T17:30:20;8.00;;;3.87;;
4202;SDS011;2115;51.038;7.006;2023-02-18T17:32:45;13.33;;;5.40;;
4202;SDS011;2115;51.038;7.006;2023-02-18T17:35:18;6.10;;;3.60;;
4202;SDS011;2115;51.038;7.006;2023-02-18T17:37:45;18.73;;;6.20;;
4202;SDS011;2115;51.038;7.006;2023-02-18T17:40:16;8.93;;;4.47;;
4202;SDS011;2115;51.038;7.006;2023-02-18T17:42:43;22.30;;;5.73;;
4202;SDS011;2115;51.038;7.006;2023-02-18T17:45:12;14.20;;;6.10;;